createdAt,value
2018-12-06T00:01:42.601Z,6.30
2018-12-06T00:04:11.079Z,6.30
2018-12-06T00:06:38.581Z,6.30
2018-12-06T00:09:06.051Z,6.30
2018-12-06T00:11:33.542Z,6.30
2018-12-06T00:14:01.008Z,6.30
2018-12-06T00:16:28.501Z,6.30
2018-12-06T00:19:08.924Z,6.30
2018-12-06T00:21:36.411Z,6.30
2018-12-06T00:24:03.877Z,6.20
2018-12-06T00:26:31.386Z,6.20
2018-12-06T00:28:58.849Z,6.20
2018-12-06T00:31:26.329Z,6.20
2018-12-06T00:33:53.791Z,6.20
2018-12-06T00:36:21.256Z,6.20
2018-12-06T00:38:48.738Z,6.20
2018-12-06T00:41:16.218Z,6.20
2018-12-06T00:43:43.756Z,6.20
2018-12-06T00:46:11.214Z,6.20
2018-12-06T00:48:38.703Z,6.20
2018-12-06T00:51:06.189Z,6.20
2018-12-06T00:53:33.666Z,6.20
2018-12-06T00:56:01.134Z,6.20
2018-12-06T00:58:28.617Z,6.20
2018-12-06T01:00:56.138Z,6.30
2018-12-06T01:03:23.626Z,6.30
2018-12-06T01:05:51.093Z,6.30
2018-12-06T01:08:18.601Z,6.30
2018-12-06T01:10:46.089Z,6.30
2018-12-06T01:13:13.604Z,6.30
2018-12-06T01:15:41.094Z,6.30
2018-12-06T01:18:08.578Z,6.30
2018-12-06T01:20:36.042Z,6.30
2018-12-06T01:23:03.526Z,6.20
2018-12-06T01:25:30.990Z,6.30
2018-12-06T01:27:58.474Z,6.30
2018-12-06T01:30:25.945Z,6.20
2018-12-06T01:32:53.415Z,6.20
2018-12-06T01:35:20.901Z,6.20
2018-12-06T01:37:48.368Z,6.20
2018-12-06T01:40:15.866Z,6.20
2018-12-06T01:42:43.317Z,6.20
2018-12-06T01:45:10.798Z,6.20
2018-12-06T01:47:38.267Z,6.20
2018-12-06T01:50:06.369Z,6.20
2018-12-06T01:52:33.846Z,6.30
2018-12-06T01:57:53.824Z,6.30
2018-12-06T02:00:21.294Z,6.30
2018-12-06T02:02:48.757Z,6.30
2018-12-06T02:05:16.257Z,6.30
2018-12-06T02:07:43.735Z,6.40
2018-12-06T02:10:11.221Z,6.30
2018-12-06T02:12:38.711Z,6.30
2018-12-06T02:15:06.196Z,6.30
2018-12-06T02:17:33.674Z,6.40
2018-12-06T02:20:01.174Z,6.40
2018-12-06T02:22:28.635Z,6.30
2018-12-06T02:24:56.178Z,6.40
2018-12-06T02:27:23.654Z,6.40
2018-12-06T02:29:53.975Z,6.40
2018-12-06T02:32:21.467Z,6.40
2018-12-06T02:34:48.958Z,6.40
2018-12-06T02:37:16.417Z,6.40
2018-12-06T02:39:43.926Z,6.40
2018-12-06T02:42:11.390Z,6.40
2018-12-06T02:44:39.091Z,6.40
2018-12-06T02:47:06.614Z,6.40
2018-12-06T02:49:34.111Z,6.40
2018-12-06T02:52:01.621Z,6.40
2018-12-06T02:54:29.124Z,6.40
2018-12-06T02:56:56.603Z,6.40
2018-12-06T02:59:24.062Z,6.40
2018-12-06T03:01:51.558Z,6.40
2018-12-06T03:04:19.018Z,6.40
2018-12-06T03:06:46.503Z,6.40
2018-12-06T03:09:13.975Z,6.40
2018-12-06T03:11:41.611Z,6.40
2018-12-06T03:14:09.126Z,6.40
2018-12-06T03:16:36.708Z,6.40
2018-12-06T03:19:04.165Z,6.40
2018-12-06T03:21:31.677Z,6.40
2018-12-06T03:23:59.162Z,6.40
2018-12-06T03:26:26.642Z,6.50
2018-12-06T03:28:54.421Z,6.50
2018-12-06T03:31:21.914Z,6.40
2018-12-06T03:33:49.399Z,6.50
2018-12-06T03:36:16.994Z,6.50
2018-12-06T03:38:44.454Z,6.50
2018-12-06T03:41:11.920Z,6.50
2018-12-06T03:43:39.403Z,6.50
2018-12-06T03:46:06.884Z,6.40
2018-12-06T03:48:34.363Z,6.40
2018-12-06T03:51:01.829Z,6.40
2018-12-06T03:53:29.335Z,6.50
2018-12-06T03:55:56.810Z,6.50
2018-12-06T03:58:24.308Z,6.50
2018-12-06T04:00:51.793Z,6.50
2018-12-06T04:03:19.288Z,6.50
2018-12-06T04:05:46.748Z,6.50
2018-12-06T04:08:14.244Z,6.50
2018-12-06T04:10:41.731Z,6.50
2018-12-06T04:13:09.252Z,6.50
2018-12-06T04:15:36.819Z,6.50
2018-12-06T04:18:04.304Z,6.50
2018-12-06T04:20:31.785Z,6.50
2018-12-06T04:22:59.302Z,6.50
2018-12-06T04:25:26.800Z,6.50
2018-12-06T04:27:54.296Z,6.50
2018-12-06T04:30:21.782Z,6.50
2018-12-06T04:32:49.349Z,6.50
2018-12-06T04:35:16.810Z,6.40
2018-12-06T04:37:44.379Z,6.50
2018-12-06T04:40:11.920Z,6.40
2018-12-06T04:42:39.439Z,6.50
2018-12-06T04:45:08.877Z,6.50
2018-12-06T04:47:36.353Z,6.50
2018-12-06T04:50:03.859Z,6.50
2018-12-06T04:52:31.358Z,6.40
2018-12-06T04:54:58.875Z,6.50
2018-12-06T04:57:26.378Z,6.40
2018-12-06T04:59:53.885Z,6.50
2018-12-06T05:02:21.354Z,6.50
2018-12-06T05:04:48.867Z,6.50
2018-12-06T05:07:16.360Z,6.50
2018-12-06T05:09:43.864Z,6.50
2018-12-06T05:12:11.334Z,6.50
2018-12-06T05:14:38.845Z,6.50
2018-12-06T05:17:06.318Z,6.50
2018-12-06T05:19:33.806Z,6.50
2018-12-06T05:22:01.353Z,6.50
2018-12-06T05:24:28.836Z,6.50
2018-12-06T05:26:56.296Z,6.50
2018-12-06T05:29:23.775Z,6.50
2018-12-06T05:31:51.271Z,6.50
2018-12-06T05:34:18.741Z,6.50
2018-12-06T05:36:46.219Z,6.50
2018-12-06T05:39:13.717Z,6.50
2018-12-06T05:41:41.307Z,6.50
2018-12-06T05:44:08.775Z,6.50
2018-12-06T05:46:36.243Z,6.50
2018-12-06T05:49:03.703Z,6.50
2018-12-06T05:51:31.189Z,6.50
2018-12-06T05:53:58.659Z,6.50
2018-12-06T05:56:26.210Z,6.50
2018-12-06T05:58:53.722Z,6.60
2018-12-06T06:01:21.215Z,6.60
2018-12-06T06:03:48.676Z,6.60
2018-12-06T06:06:16.168Z,6.60
2018-12-06T06:08:43.654Z,6.60
2018-12-06T06:11:11.146Z,6.60
2018-12-06T06:13:38.615Z,6.60
2018-12-06T06:16:06.099Z,6.60
2018-12-06T06:18:33.584Z,6.60
2018-12-06T06:21:01.086Z,6.60
2018-12-06T06:23:28.670Z,6.70
2018-12-06T06:25:56.162Z,6.60
2018-12-06T06:28:23.655Z,6.60
2018-12-06T06:30:51.355Z,6.60
2018-12-06T06:33:19.030Z,6.70
2018-12-06T06:35:46.531Z,6.70
2018-12-06T06:38:14.032Z,6.70
2018-12-06T06:40:41.490Z,6.70
2018-12-06T06:43:08.976Z,6.70
2018-12-06T06:45:36.453Z,6.70
2018-12-06T06:48:03.950Z,6.70
2018-12-06T06:50:31.398Z,6.70
2018-12-06T06:52:58.884Z,6.70
2018-12-06T06:55:27.762Z,6.70
2018-12-06T06:57:55.275Z,6.70
2018-12-06T07:00:22.753Z,6.70
2018-12-06T07:02:50.257Z,6.70
2018-12-06T07:05:17.734Z,6.70
2018-12-06T07:07:45.262Z,6.80
2018-12-06T07:10:12.738Z,6.80
2018-12-06T07:12:40.257Z,6.80
2018-12-06T07:15:07.741Z,6.80
2018-12-06T07:17:35.228Z,6.80
2018-12-06T07:20:02.689Z,6.80
2018-12-06T07:22:30.328Z,6.80
2018-12-06T07:24:57.779Z,6.80
2018-12-06T07:27:25.246Z,6.90
2018-12-06T07:29:52.727Z,6.90
2018-12-06T07:34:58.924Z,6.90
2018-12-06T07:37:26.462Z,6.90
2018-12-06T07:39:53.938Z,6.90
2018-12-06T07:42:21.406Z,6.90
2018-12-06T07:44:48.890Z,6.90
2018-12-06T07:47:16.396Z,7.00
2018-12-06T07:49:43.876Z,7.00
2018-12-06T07:52:11.356Z,7.00
2018-12-06T07:54:38.829Z,7.00
2018-12-06T07:57:06.277Z,7.00
2018-12-06T07:59:33.764Z,7.00
2018-12-06T08:02:01.250Z,7.00
2018-12-06T08:04:28.768Z,7.00
2018-12-06T08:06:56.270Z,7.10
2018-12-06T08:09:23.782Z,7.10
2018-12-06T08:11:51.249Z,7.10
2018-12-06T08:14:18.757Z,7.10
2018-12-06T08:16:46.251Z,7.10
2018-12-06T08:19:14.013Z,7.10
2018-12-06T08:21:41.741Z,7.10
2018-12-06T08:24:09.228Z,7.10
2018-12-06T08:26:36.703Z,7.20
2018-12-06T08:29:04.161Z,7.20
2018-12-06T08:31:31.659Z,7.20
2018-12-06T08:34:05.916Z,7.20
2018-12-06T08:36:28.670Z,7.20
2018-12-06T08:38:56.125Z,7.20
2018-12-06T08:41:23.625Z,7.20
2018-12-06T08:43:51.130Z,7.20
2018-12-06T08:46:18.645Z,7.30
2018-12-06T08:48:46.099Z,7.40
2018-12-06T08:51:13.574Z,7.40
2018-12-06T08:53:41.045Z,7.40
2018-12-06T08:56:08.525Z,7.50
2018-12-06T08:58:35.998Z,7.50
2018-12-06T09:01:03.479Z,7.60
2018-12-06T09:03:30.975Z,7.60
2018-12-06T09:05:58.499Z,7.60
2018-12-06T09:08:25.967Z,7.60
2018-12-06T09:10:53.490Z,7.60
2018-12-06T09:13:21.000Z,7.60
2018-12-06T09:15:48.499Z,7.60
2018-12-06T09:18:15.962Z,7.70
2018-12-06T09:20:43.450Z,7.70
2018-12-06T09:23:10.917Z,7.70
2018-12-06T09:25:38.413Z,7.70
2018-12-06T09:28:05.879Z,7.80
2018-12-06T09:30:33.366Z,7.80
2018-12-06T09:33:00.843Z,7.80
2018-12-06T09:35:28.295Z,7.80
2018-12-06T09:37:55.793Z,7.80
2018-12-06T09:40:23.353Z,7.90
2018-12-06T09:42:50.829Z,7.80
2018-12-06T09:45:18.282Z,7.90
2018-12-06T09:47:45.780Z,7.90
2018-12-06T09:50:13.240Z,7.90
2018-12-06T09:52:40.768Z,7.90
2018-12-06T09:55:08.250Z,7.90
2018-12-06T09:57:35.734Z,8.00
2018-12-06T10:00:05.036Z,7.90
2018-12-06T10:02:32.509Z,7.90
2018-12-06T10:04:59.986Z,8.00
2018-12-06T10:07:27.451Z,8.00
2018-12-06T10:09:54.933Z,8.00
2018-12-06T10:12:22.420Z,8.10
2018-12-06T10:14:49.907Z,8.00
2018-12-06T10:17:17.380Z,8.10
2018-12-06T10:19:44.839Z,8.10
2018-12-06T10:22:12.363Z,8.20
2018-12-06T10:24:40.821Z,8.10
2018-12-06T10:27:08.299Z,8.10
2018-12-06T10:29:35.814Z,8.10
2018-12-06T10:32:03.289Z,8.10
2018-12-06T10:34:30.756Z,8.20
2018-12-06T10:36:58.243Z,8.10
2018-12-06T10:39:25.791Z,8.20
2018-12-06T10:41:53.391Z,8.30
2018-12-06T10:44:27.638Z,8.30
2018-12-06T10:46:55.172Z,8.40
2018-12-06T10:49:22.629Z,8.40
2018-12-06T10:51:50.166Z,8.40
2018-12-06T10:54:17.661Z,8.50
2018-12-06T10:56:45.203Z,8.50
2018-12-06T10:59:12.802Z,8.50
2018-12-06T11:01:45.990Z,8.60
2018-12-06T11:04:13.473Z,8.60
2018-12-06T11:06:40.930Z,8.80
2018-12-06T11:09:08.416Z,8.80
2018-12-06T11:11:35.886Z,8.90
2018-12-06T11:14:03.591Z,8.90
2018-12-06T11:16:31.046Z,8.90
2018-12-06T11:18:58.552Z,9.00
2018-12-06T11:21:26.028Z,9.10
2018-12-06T11:23:53.508Z,9.10
2018-12-06T11:26:20.970Z,9.10
2018-12-06T11:28:48.457Z,9.10
2018-12-06T11:31:16.079Z,9.20
2018-12-06T11:33:43.546Z,9.30
2018-12-06T11:36:11.024Z,9.40
2018-12-06T11:38:38.494Z,9.40
2018-12-06T11:41:05.980Z,9.40
2018-12-06T11:43:33.458Z,9.40
2018-12-06T11:46:00.987Z,9.40
2018-12-06T11:48:28.448Z,9.40
2018-12-06T11:50:56.005Z,9.40
2018-12-06T11:53:23.519Z,9.40
2018-12-06T11:55:51.016Z,9.50
2018-12-06T11:58:18.463Z,9.50
2018-12-06T12:00:46.242Z,9.50
2018-12-06T12:03:13.724Z,9.50
2018-12-06T12:05:41.213Z,9.50
2018-12-06T12:08:08.672Z,9.50
2018-12-06T12:10:36.158Z,9.50
2018-12-06T12:13:03.629Z,9.60
2018-12-06T12:15:31.124Z,9.60
2018-12-06T12:17:58.574Z,9.60
2018-12-06T12:20:26.054Z,9.70
2018-12-06T12:22:53.525Z,9.70
2018-12-06T12:25:21.005Z,9.70
2018-12-06T12:27:48.506Z,9.80
2018-12-06T12:30:15.991Z,9.90
2018-12-06T12:32:43.492Z,9.90
2018-12-06T12:35:10.978Z,9.90
2018-12-06T12:37:38.461Z,10.00
2018-12-06T12:40:08.410Z,10.00
2018-12-06T12:42:35.910Z,10.00
2018-12-06T12:45:03.634Z,10.00
2018-12-06T12:47:31.118Z,10.00
2018-12-06T12:49:58.754Z,10.00
2018-12-06T12:52:26.234Z,10.00
2018-12-06T12:54:53.762Z,10.00
2018-12-06T12:57:21.272Z,10.00
2018-12-06T12:59:48.753Z,9.90
2018-12-06T13:02:16.219Z,9.90
2018-12-06T13:04:43.729Z,10.00
2018-12-06T13:07:11.574Z,10.00
2018-12-06T13:09:39.038Z,9.90
2018-12-06T13:12:06.526Z,9.90
2018-12-06T13:14:33.994Z,9.90
2018-12-06T13:17:01.519Z,10.00
2018-12-06T13:19:29.015Z,10.10
2018-12-06T13:21:56.526Z,10.10
2018-12-06T13:24:24.100Z,10.10
2018-12-06T13:26:51.594Z,10.20
2018-12-06T13:29:19.096Z,10.20
2018-12-06T13:31:46.612Z,10.20
2018-12-06T13:34:14.125Z,10.20
2018-12-06T13:36:41.684Z,10.20
2018-12-06T13:39:09.142Z,10.30
2018-12-06T13:41:36.632Z,10.30
2018-12-06T13:44:04.126Z,10.30
2018-12-06T13:46:31.602Z,10.30
2018-12-06T13:48:59.166Z,10.40
2018-12-06T13:51:26.725Z,10.40
2018-12-06T13:53:54.222Z,10.40
2018-12-06T13:56:21.716Z,10.40
2018-12-06T13:58:49.198Z,10.40
2018-12-06T14:01:17.009Z,10.40
2018-12-06T14:03:44.778Z,10.40
2018-12-06T14:06:12.306Z,10.40
2018-12-06T14:08:39.819Z,10.40
2018-12-06T14:11:07.325Z,10.40
2018-12-06T14:13:34.836Z,10.40
2018-12-06T14:16:09.928Z,10.40
2018-12-06T14:18:31.799Z,10.40
2018-12-06T14:20:59.344Z,10.40
2018-12-06T14:23:26.862Z,10.30
2018-12-06T14:25:54.346Z,10.40
2018-12-06T14:28:21.888Z,10.30
2018-12-06T14:30:49.354Z,10.30
2018-12-06T14:33:16.851Z,10.30
2018-12-06T14:35:44.336Z,10.30
2018-12-06T14:38:11.797Z,10.30
2018-12-06T14:40:39.300Z,10.30
2018-12-06T14:43:07.050Z,10.30
2018-12-06T14:45:34.784Z,10.30
2018-12-06T14:48:02.270Z,10.30
2018-12-06T14:50:29.761Z,10.30
2018-12-06T14:52:57.230Z,10.30
2018-12-06T14:55:24.721Z,10.30
2018-12-06T14:57:52.201Z,10.30
2018-12-06T15:00:19.700Z,10.30
2018-12-06T15:02:47.837Z,10.30
2018-12-06T15:05:15.327Z,10.30
2018-12-06T15:07:42.789Z,10.30
2018-12-06T15:10:10.269Z,10.30
2018-12-06T15:12:37.743Z,10.30
2018-12-06T15:15:05.230Z,10.30
2018-12-06T15:17:32.709Z,10.30
2018-12-06T15:20:00.222Z,10.30
2018-12-06T15:22:27.703Z,10.20
2018-12-06T15:24:55.439Z,10.20
2018-12-06T15:27:23.055Z,10.20
2018-12-06T15:29:50.702Z,10.20
2018-12-06T15:32:18.191Z,10.20
2018-12-06T15:34:45.674Z,10.20
2018-12-06T15:37:13.214Z,10.10
2018-12-06T15:39:40.700Z,10.10
2018-12-06T15:42:08.341Z,10.10
2018-12-06T15:44:35.890Z,10.10
2018-12-06T15:47:03.369Z,10.10
2018-12-06T15:49:30.849Z,10.10
2018-12-06T15:51:58.336Z,10.10
2018-12-06T15:54:25.801Z,10.10
2018-12-06T15:56:53.312Z,10.10
2018-12-06T15:59:21.610Z,10.10
2018-12-06T16:01:49.108Z,10.10
2018-12-06T16:04:16.575Z,10.10
2018-12-06T16:06:44.085Z,10.10
2018-12-06T16:09:11.563Z,10.10
2018-12-06T16:11:39.042Z,10.10
2018-12-06T16:14:06.529Z,10.10
2018-12-06T16:16:34.010Z,10.10
2018-12-06T16:19:01.475Z,10.10
2018-12-06T16:21:28.971Z,10.10
2018-12-06T16:23:56.464Z,10.10
2018-12-06T16:26:23.943Z,10.10
2018-12-06T16:28:51.444Z,10.10
2018-12-06T16:31:18.959Z,10.00
2018-12-06T16:33:46.474Z,10.00
2018-12-06T16:36:13.951Z,10.00
2018-12-06T16:38:41.435Z,10.00
2018-12-06T16:41:08.885Z,10.00
2018-12-06T16:43:36.374Z,10.00
2018-12-06T16:46:03.844Z,10.00
2018-12-06T16:48:31.346Z,10.00
2018-12-06T16:50:58.817Z,10.00
2018-12-06T16:53:26.408Z,10.00
2018-12-06T16:55:53.875Z,10.00
2018-12-06T16:58:21.405Z,10.00
2018-12-06T17:00:48.888Z,10.00
2018-12-06T17:03:16.377Z,10.00
2018-12-06T17:05:43.857Z,10.00
2018-12-06T17:08:11.350Z,10.00
2018-12-06T17:10:38.814Z,10.00
2018-12-06T17:13:06.333Z,10.00
2018-12-06T17:15:33.828Z,10.00
2018-12-06T17:18:01.334Z,10.00
2018-12-06T17:20:28.810Z,10.00
2018-12-06T17:22:56.300Z,10.00
2018-12-06T17:25:23.774Z,10.10
2018-12-06T17:27:51.313Z,10.10
2018-12-06T17:30:19.158Z,10.10
2018-12-06T17:32:47.071Z,10.10
2018-12-06T17:35:15.396Z,10.00
2018-12-06T17:37:42.884Z,10.00
2018-12-06T17:40:10.388Z,10.00
2018-12-06T17:42:37.967Z,10.00
2018-12-06T17:45:06.760Z,10.00
2018-12-06T17:47:34.236Z,10.00
2018-12-06T17:50:01.775Z,10.10
2018-12-06T17:52:29.248Z,10.10
2018-12-06T17:54:56.739Z,10.10
2018-12-06T17:57:24.207Z,10.10
2018-12-06T17:59:51.702Z,10.10
2018-12-06T18:02:19.178Z,10.10
2018-12-06T18:04:46.673Z,10.20
2018-12-06T18:07:14.154Z,10.20
2018-12-06T18:09:41.791Z,10.20
2018-12-06T18:12:09.290Z,10.20
2018-12-06T18:14:36.831Z,10.30
2018-12-06T18:17:04.326Z,10.30
2018-12-06T18:19:31.813Z,10.30
2018-12-06T18:21:59.409Z,10.30
2018-12-06T18:24:26.976Z,10.30
2018-12-06T18:26:54.455Z,10.40
2018-12-06T18:29:21.916Z,10.40
2018-12-06T18:31:49.441Z,10.40
2018-12-06T18:34:16.894Z,10.40
2018-12-06T18:36:44.384Z,10.40
2018-12-06T18:39:11.872Z,10.40
2018-12-06T18:41:39.369Z,10.50
2018-12-06T18:44:06.866Z,10.50
2018-12-06T18:46:34.387Z,10.50
2018-12-06T18:49:01.874Z,10.50
2018-12-06T18:51:29.401Z,10.50
2018-12-06T18:53:56.885Z,10.50
2018-12-06T18:56:24.528Z,10.50
2018-12-06T18:58:52.015Z,10.60
2018-12-06T19:01:19.501Z,10.60
2018-12-06T19:03:46.994Z,10.60
2018-12-06T19:06:14.475Z,10.60
2018-12-06T19:08:41.981Z,10.60
2018-12-06T19:11:09.757Z,10.60
2018-12-06T19:13:37.490Z,10.60
2018-12-06T19:16:05.081Z,10.60
2018-12-06T19:18:32.574Z,10.60
2018-12-06T19:21:00.077Z,10.60
2018-12-06T19:23:27.645Z,10.60
2018-12-06T19:25:55.234Z,10.60
2018-12-06T19:28:22.711Z,10.60
2018-12-06T19:30:50.621Z,10.60
2018-12-06T19:33:18.091Z,10.60
2018-12-06T19:35:45.573Z,10.60
2018-12-06T19:38:13.062Z,10.60
2018-12-06T19:40:40.533Z,10.60
2018-12-06T19:43:08.030Z,10.70
2018-12-06T19:45:35.502Z,10.70
2018-12-06T19:48:03.017Z,10.60
2018-12-06T19:50:30.491Z,10.70
2018-12-06T19:52:58.022Z,10.70
2018-12-06T19:55:25.506Z,10.70
2018-12-06T19:57:53.007Z,10.60
2018-12-06T20:00:20.518Z,10.60
2018-12-06T20:02:47.993Z,10.70
2018-12-06T20:05:15.473Z,10.60
2018-12-06T20:07:42.976Z,10.60
2018-12-06T20:10:10.466Z,10.60
2018-12-06T20:12:37.943Z,10.60
2018-12-06T20:15:05.419Z,10.60
2018-12-06T20:17:32.938Z,10.50
2018-12-06T20:20:00.431Z,10.50
2018-12-06T20:22:27.941Z,10.40
2018-12-06T20:24:56.354Z,10.50
2018-12-06T20:27:23.828Z,10.50
2018-12-06T20:29:51.330Z,10.50
2018-12-06T20:32:18.805Z,10.50
2018-12-06T20:34:46.309Z,10.50
2018-12-06T20:37:13.856Z,10.50
2018-12-06T20:39:41.358Z,10.50
2018-12-06T20:42:08.821Z,10.60
2018-12-06T20:44:36.364Z,10.60
2018-12-06T20:47:03.947Z,10.60
2018-12-06T20:49:31.475Z,10.70
2018-12-06T20:51:58.939Z,10.80
2018-12-06T20:54:26.420Z,10.80
2018-12-06T20:56:55.125Z,10.90
2018-12-06T20:59:22.826Z,10.90
2018-12-06T21:01:50.349Z,10.90
2018-12-06T21:04:17.844Z,10.90
2018-12-06T21:06:45.334Z,10.90
2018-12-06T21:09:12.835Z,10.90
2018-12-06T21:11:40.295Z,10.90
2018-12-06T21:14:07.795Z,10.80
2018-12-06T21:16:35.743Z,10.80
2018-12-06T21:19:03.435Z,10.70
2018-12-06T21:21:32.254Z,10.70
2018-12-06T21:23:59.741Z,10.70
2018-12-06T21:26:27.214Z,10.70
2018-12-06T21:28:54.685Z,10.70
2018-12-06T21:31:22.200Z,10.70
2018-12-06T21:33:49.687Z,10.70
2018-12-06T21:36:17.165Z,10.70
2018-12-06T21:38:44.738Z,10.70
2018-12-06T21:41:12.254Z,10.70
2018-12-06T21:43:39.878Z,10.70
2018-12-06T21:46:07.361Z,10.70
2018-12-06T21:48:34.840Z,10.70
2018-12-06T21:51:02.344Z,10.80
2018-12-06T21:53:29.802Z,10.80
2018-12-06T21:55:57.325Z,10.80
2018-12-06T21:58:24.920Z,10.80
2018-12-06T22:00:52.443Z,10.80
2018-12-06T22:03:19.909Z,10.80
2018-12-06T22:05:47.422Z,10.80
2018-12-06T22:08:14.917Z,10.80
2018-12-06T22:10:44.488Z,10.80
2018-12-06T22:13:12.034Z,10.80
2018-12-06T22:15:39.546Z,10.80
2018-12-06T22:18:07.075Z,10.80
2018-12-06T22:20:34.628Z,10.80
2018-12-06T22:23:02.403Z,10.80
2018-12-06T22:25:30.751Z,10.90
2018-12-06T22:27:58.383Z,10.90
2018-12-06T22:30:25.887Z,11.00
2018-12-06T22:32:53.759Z,11.00
2018-12-06T22:35:21.415Z,11.00
2018-12-06T22:37:48.915Z,11.10
2018-12-06T22:40:16.369Z,11.20
2018-12-06T22:42:43.906Z,11.20
2018-12-06T22:45:23.251Z,11.30
2018-12-06T22:47:50.778Z,11.30
2018-12-06T22:50:18.277Z,11.30
2018-12-06T22:52:45.847Z,11.40
2018-12-06T22:55:13.342Z,11.40
2018-12-06T22:57:42.252Z,11.40
2018-12-06T23:00:09.723Z,11.50
2018-12-06T23:02:37.203Z,11.50
2018-12-06T23:05:04.695Z,11.50
2018-12-06T23:07:32.211Z,11.50
2018-12-06T23:09:59.694Z,11.50
2018-12-06T23:12:27.284Z,11.60
2018-12-06T23:14:54.749Z,11.60
2018-12-06T23:17:22.230Z,11.60
2018-12-06T23:19:49.716Z,11.70
2018-12-06T23:22:17.206Z,11.70
2018-12-06T23:24:44.695Z,11.70
2018-12-06T23:27:12.172Z,11.80
2018-12-06T23:29:39.674Z,11.80
2018-12-06T23:32:07.382Z,11.80
2018-12-06T23:34:34.966Z,11.80
2018-12-06T23:37:02.462Z,11.80
2018-12-06T23:39:29.965Z,11.80
2018-12-06T23:41:57.447Z,11.90
2018-12-06T23:44:24.928Z,11.90
2018-12-06T23:46:52.459Z,11.90
2018-12-06T23:49:19.944Z,11.90
2018-12-06T23:51:47.414Z,12.00
2018-12-06T23:54:14.910Z,11.90
2018-12-06T23:56:42.425Z,12.00
2018-12-06T23:59:09.907Z,12.00
